createdAt,value
2018-12-16T00:01:39.784Z,100027.00
2018-12-16T00:04:16.655Z,100027.00
2018-12-16T00:06:46.190Z,100026.00
2018-12-16T00:09:16.003Z,100017.00
2018-12-16T00:11:46.793Z,100016.00
2018-12-16T00:14:18.338Z,100008.00
2018-12-16T00:16:50.022Z,100010.00
2018-12-16T00:19:20.349Z,99996.00
2018-12-16T00:21:52.055Z,99983.00
2018-12-16T00:24:22.507Z,99984.00
2018-12-16T00:27:09.511Z,99982.00
2018-12-16T00:29:39.982Z,99977.00
2018-12-16T00:32:09.533Z,99975.00
2018-12-16T00:34:41.087Z,99978.00
2018-12-16T00:37:14.437Z,99977.00
2018-12-16T00:39:43.924Z,99969.00
2018-12-16T00:42:17.178Z,99971.00
2018-12-16T00:44:47.037Z,99968.00
2018-12-16T00:47:17.104Z,99953.00
2018-12-16T00:49:46.947Z,99951.00
2018-12-16T00:52:16.705Z,99960.00
2018-12-16T00:54:46.955Z,99963.00
2018-12-16T00:57:17.547Z,99956.00
2018-12-16T00:59:48.125Z,99958.00
2018-12-16T01:02:26.059Z,99947.00
2018-12-16T01:04:55.426Z,99946.00
2018-12-16T01:07:25.596Z,99945.00
2018-12-16T01:09:56.169Z,99933.00
2018-12-16T01:12:25.543Z,99929.00
2018-12-16T01:14:55.029Z,99942.00
2018-12-16T01:17:24.844Z,99923.00
2018-12-16T01:19:54.597Z,99927.00
2018-12-16T01:22:26.450Z,99920.00
2018-12-16T01:24:56.551Z,99919.00
2018-12-16T01:27:25.888Z,99919.00
2018-12-16T01:29:55.819Z,99908.00
2018-12-16T01:32:25.837Z,99917.00
2018-12-16T01:34:55.563Z,99907.00
2018-12-16T01:37:25.450Z,99909.00
2018-12-16T01:39:55.191Z,99895.00
2018-12-16T01:42:26.316Z,99901.00
2018-12-16T01:44:56.419Z,99890.00
2018-12-16T01:47:26.156Z,99882.00
2018-12-16T01:49:55.636Z,99885.00
2018-12-16T01:52:26.404Z,99876.00
2018-12-16T01:54:55.976Z,99875.00
2018-12-16T01:57:25.382Z,99868.00
2018-12-16T01:59:55.112Z,99864.00
2018-12-16T02:02:24.996Z,99872.00
2018-12-16T02:04:54.515Z,99869.00
2018-12-16T02:07:25.899Z,99854.00
2018-12-16T02:09:55.403Z,99856.00
2018-12-16T02:12:25.755Z,99863.00
2018-12-16T02:14:55.167Z,99844.00
2018-12-16T02:17:25.364Z,99846.00
2018-12-16T02:19:54.864Z,99854.00
2018-12-16T02:22:25.283Z,99846.00
2018-12-16T02:24:54.825Z,99848.00
2018-12-16T02:27:26.279Z,99857.00
2018-12-16T02:29:55.791Z,99848.00
2018-12-16T02:32:25.866Z,99848.00
2018-12-16T02:34:55.976Z,99839.00
2018-12-16T02:37:27.243Z,99841.00
2018-12-16T02:39:58.851Z,99839.00
2018-12-16T02:42:31.415Z,99830.00
2018-12-16T02:45:03.001Z,99827.00
2018-12-16T02:47:32.463Z,99825.00
2018-12-16T02:50:01.988Z,99826.00
2018-12-16T02:52:31.766Z,99834.00
2018-12-16T02:55:03.935Z,99827.00
2018-12-16T02:57:35.735Z,99819.00
2018-12-16T03:00:06.969Z,99808.00
2018-12-16T03:02:38.211Z,99810.00
2018-12-16T03:05:12.207Z,99797.00
2018-12-16T03:07:41.727Z,99798.00
2018-12-16T03:10:13.834Z,99798.00
2018-12-16T03:12:45.156Z,99794.00
2018-12-16T03:15:14.800Z,99779.00
2018-12-16T03:17:45.217Z,99781.00
2018-12-16T03:20:15.515Z,99779.00
2018-12-16T03:22:45.451Z,99770.00
2018-12-16T03:25:15.577Z,99767.00
2018-12-16T03:27:44.907Z,99764.00
2018-12-16T03:30:14.616Z,99757.00
2018-12-16T03:32:44.065Z,99755.00
2018-12-16T03:35:13.999Z,99753.00
2018-12-16T03:37:43.946Z,99751.00
2018-12-16T03:40:14.278Z,99753.00
2018-12-16T03:42:45.231Z,99748.00
2018-12-16T03:45:14.890Z,99748.00
2018-12-16T03:47:47.365Z,99746.00
2018-12-16T03:50:19.064Z,99746.00
2018-12-16T03:52:48.567Z,99738.00
2018-12-16T03:55:18.664Z,99742.00
2018-12-16T03:57:49.926Z,99737.00
2018-12-16T04:00:19.648Z,99735.00
2018-12-16T04:02:49.288Z,99726.00
2018-12-16T04:05:19.140Z,99731.00
2018-12-16T04:07:48.640Z,99729.00
2018-12-16T04:10:18.086Z,99729.00
2018-12-16T04:12:47.551Z,99722.00
2018-12-16T04:15:17.072Z,99714.00
2018-12-16T04:17:48.106Z,99706.00
2018-12-16T04:20:17.458Z,99703.00
2018-12-16T04:22:47.769Z,99705.00
2018-12-16T04:25:24.983Z,99692.00
2018-12-16T04:27:54.885Z,99689.00
2018-12-16T04:30:24.749Z,99682.00
2018-12-16T04:32:56.467Z,99683.00
2018-12-16T04:35:27.420Z,99668.00
2018-12-16T04:38:01.361Z,99662.00
2018-12-16T04:40:30.940Z,99657.00
2018-12-16T04:43:00.327Z,99658.00
2018-12-16T04:45:30.259Z,99665.00
2018-12-16T04:48:01.499Z,99668.00
2018-12-16T04:50:31.004Z,99662.00
2018-12-16T04:53:00.570Z,99667.00
2018-12-16T04:55:30.008Z,99654.00
2018-12-16T04:58:00.433Z,99651.00
2018-12-16T05:00:29.936Z,99656.00
2018-12-16T05:03:00.456Z,99645.00
2018-12-16T05:05:31.116Z,99647.00
2018-12-16T05:08:01.290Z,99652.00
2018-12-16T05:10:31.891Z,99655.00
2018-12-16T05:13:02.388Z,99655.00
2018-12-16T05:15:31.884Z,99653.00
2018-12-16T05:18:02.253Z,99650.00
2018-12-16T05:20:32.796Z,99638.00
2018-12-16T05:23:03.741Z,99643.00
2018-12-16T05:25:33.644Z,99644.00
2018-12-16T05:28:03.113Z,99624.00
2018-12-16T05:30:32.747Z,99615.00
2018-12-16T05:33:02.875Z,99607.00
2018-12-16T05:35:33.654Z,99610.00
2018-12-16T05:38:03.058Z,99604.00
2018-12-16T05:40:33.184Z,99594.00
2018-12-16T05:43:04.727Z,99584.00
2018-12-16T05:45:34.245Z,99580.00
2018-12-16T05:48:03.675Z,99575.00
2018-12-16T05:50:34.584Z,99571.00
2018-12-16T05:53:03.985Z,99566.00
2018-12-16T05:55:34.325Z,99577.00
2018-12-16T05:58:04.134Z,99576.00
2018-12-16T06:00:37.015Z,99586.00
2018-12-16T06:03:06.974Z,99593.00
2018-12-16T06:05:38.538Z,99615.00
2018-12-16T06:08:07.920Z,99605.00
2018-12-16T06:10:39.052Z,99596.00
2018-12-16T06:13:12.984Z,99584.00
2018-12-16T06:15:43.914Z,99586.00
2018-12-16T06:18:13.498Z,99586.00
2018-12-16T06:20:42.884Z,99587.00
2018-12-16T06:23:16.815Z,99590.00
2018-12-16T06:25:48.491Z,99585.00
2018-12-16T06:28:17.971Z,99595.00
2018-12-16T06:30:49.943Z,99590.00
2018-12-16T06:33:20.955Z,99584.00
2018-12-16T06:35:50.317Z,99578.00
2018-12-16T06:38:20.340Z,99578.00
2018-12-16T06:40:50.159Z,99565.00
2018-12-16T06:43:19.906Z,99570.00
2018-12-16T06:45:49.773Z,99563.00
2018-12-16T06:48:19.279Z,99564.00
2018-12-16T06:50:53.119Z,99572.00
2018-12-16T06:53:27.724Z,99561.00
2018-12-16T06:55:57.146Z,99563.00
2018-12-16T06:58:29.719Z,99554.00
2018-12-16T07:01:00.071Z,99544.00
2018-12-16T07:03:30.553Z,99537.00
2018-12-16T07:06:07.669Z,99536.00
2018-12-16T07:08:39.966Z,99521.00
2018-12-16T07:11:10.359Z,99526.00
2018-12-16T07:13:41.520Z,99508.00
2018-12-16T07:16:11.958Z,99527.00
2018-12-16T07:18:42.257Z,99516.00
2018-12-16T07:21:11.756Z,99529.00
2018-12-16T07:23:44.022Z,99536.00
2018-12-16T07:26:24.840Z,99531.00
2018-12-16T07:28:55.086Z,99524.00
2018-12-16T07:31:26.240Z,99529.00
2018-12-16T07:33:55.640Z,99528.00
2018-12-16T07:36:25.192Z,99532.00
2018-12-16T07:38:54.908Z,99522.00
2018-12-16T07:41:24.460Z,99523.00
2018-12-16T07:43:54.978Z,99528.00
2018-12-16T07:46:30.349Z,99535.00
2018-12-16T07:49:01.074Z,99534.00
2018-12-16T07:51:31.801Z,99531.00
2018-12-16T07:54:03.433Z,99530.00
2018-12-16T07:56:35.188Z,99523.00
2018-12-16T07:59:04.626Z,99529.00
2018-12-16T08:01:42.106Z,99526.00
2018-12-16T08:04:11.900Z,99518.00
2018-12-16T08:06:42.312Z,99516.00
2018-12-16T08:09:14.399Z,99525.00
2018-12-16T08:11:43.875Z,99529.00
2018-12-16T08:14:13.614Z,99537.00
2018-12-16T08:16:45.416Z,99536.00
2018-12-16T08:19:15.429Z,99537.00
2018-12-16T08:21:44.974Z,99528.00
2018-12-16T08:24:15.056Z,99531.00
2018-12-16T08:26:44.890Z,99533.00
2018-12-16T08:29:16.072Z,99541.00
2018-12-16T08:31:45.924Z,99537.00
2018-12-16T08:34:16.314Z,99532.00
2018-12-16T08:36:45.804Z,99518.00
2018-12-16T08:39:15.264Z,99522.00
2018-12-16T08:41:45.404Z,99525.00
2018-12-16T08:44:17.257Z,99515.00
2018-12-16T08:46:49.294Z,99513.00
2018-12-16T08:49:20.638Z,99517.00
2018-12-16T08:51:52.609Z,99505.00
2018-12-16T08:54:30.172Z,99505.00
2018-12-16T08:57:01.446Z,99512.00
2018-12-16T08:59:32.979Z,99501.00
2018-12-16T09:02:05.603Z,99499.00
2018-12-16T09:04:36.851Z,99504.00
2018-12-16T09:07:07.382Z,99511.00
2018-12-16T09:09:37.249Z,99505.00
2018-12-16T09:12:08.652Z,99510.00
2018-12-16T09:14:46.367Z,99500.00
2018-12-16T09:17:16.414Z,99503.00
2018-12-16T09:19:45.894Z,99498.00
2018-12-16T09:22:15.404Z,99504.00
2018-12-16T09:24:47.103Z,99495.00
2018-12-16T09:27:20.871Z,99500.00
2018-12-16T09:29:53.026Z,99497.00
2018-12-16T09:32:23.448Z,99493.00
2018-12-16T09:34:54.839Z,99488.00
2018-12-16T09:37:24.395Z,99474.00
2018-12-16T09:39:53.750Z,99474.00
2018-12-16T09:42:23.262Z,99462.00
2018-12-16T09:44:53.622Z,99467.00
2018-12-16T09:47:24.867Z,99471.00
2018-12-16T09:49:55.152Z,99454.00
2018-12-16T09:52:24.740Z,99452.00
2018-12-16T09:54:57.876Z,99448.00
2018-12-16T09:57:28.965Z,99451.00
2018-12-16T10:00:00.269Z,99445.00
2018-12-16T10:02:32.092Z,99448.00
2018-12-16T10:05:01.919Z,99452.00
2018-12-16T10:07:46.827Z,99443.00
2018-12-16T10:10:18.899Z,99431.00
2018-12-16T10:12:48.577Z,99435.00
2018-12-16T10:15:20.451Z,99443.00
2018-12-16T10:17:49.948Z,99449.00
2018-12-16T10:20:19.567Z,99452.00
2018-12-16T10:22:49.098Z,99448.00
2018-12-16T10:25:23.537Z,99446.00
2018-12-16T10:27:54.109Z,99434.00
2018-12-16T10:30:24.072Z,99434.00
2018-12-16T10:32:56.914Z,99426.00
2018-12-16T10:35:28.867Z,99414.00
2018-12-16T10:38:00.996Z,99406.00
2018-12-16T10:40:32.082Z,99415.00
2018-12-16T10:43:02.576Z,99401.00
2018-12-16T10:45:32.916Z,99401.00
2018-12-16T10:48:02.357Z,99401.00
2018-12-16T10:50:33.463Z,99393.00
2018-12-16T10:53:04.014Z,99394.00
2018-12-16T10:55:37.977Z,99388.00
2018-12-16T10:58:09.546Z,99371.00
2018-12-16T11:00:44.281Z,99381.00
2018-12-16T11:03:16.680Z,99382.00
2018-12-16T11:05:46.685Z,99389.00
2018-12-16T11:08:18.323Z,99382.00
2018-12-16T11:10:48.305Z,99383.00
2018-12-16T11:13:23.856Z,99376.00
2018-12-16T11:15:53.248Z,99370.00
2018-12-16T11:18:23.981Z,99377.00
2018-12-16T11:20:54.083Z,99375.00
2018-12-16T11:23:25.749Z,99354.00
2018-12-16T11:25:58.230Z,99352.00
2018-12-16T11:28:32.111Z,99352.00
2018-12-16T11:31:01.653Z,99336.00
2018-12-16T11:33:32.096Z,99332.00
2018-12-16T11:36:01.523Z,99330.00
2018-12-16T11:38:33.027Z,99325.00
2018-12-16T11:41:05.094Z,99322.00
2018-12-16T11:43:34.617Z,99327.00
2018-12-16T11:46:04.407Z,99338.00
2018-12-16T11:48:39.830Z,99333.00
2018-12-16T11:51:10.031Z,99334.00
2018-12-16T11:53:44.503Z,99325.00
2018-12-16T11:56:14.504Z,99326.00
2018-12-16T11:58:45.428Z,99319.00
2018-12-16T12:01:15.292Z,99321.00
2018-12-16T12:03:50.926Z,99328.00
2018-12-16T12:06:20.359Z,99332.00
2018-12-16T12:08:51.716Z,99332.00
2018-12-16T12:11:22.358Z,99328.00
2018-12-16T12:13:51.915Z,99317.00
2018-12-16T12:19:22.906Z,99312.00
2018-12-16T12:21:53.775Z,99306.00
2018-12-16T12:24:23.535Z,99306.00
2018-12-16T12:26:54.019Z,99306.00
2018-12-16T12:29:23.542Z,99315.00
2018-12-16T12:31:56.168Z,99313.00
2018-12-16T12:34:26.892Z,99295.00
2018-12-16T12:36:56.329Z,99289.00
2018-12-16T12:39:25.920Z,99286.00
2018-12-16T12:41:56.450Z,99289.00
2018-12-16T12:44:27.535Z,99299.00
2018-12-16T12:47:00.070Z,99287.00
2018-12-16T12:49:32.035Z,99294.00
2018-12-16T12:52:03.674Z,99283.00
2018-12-16T12:54:33.755Z,99286.00
2018-12-16T12:57:04.767Z,99285.00
2018-12-16T12:59:44.463Z,99281.00
2018-12-16T13:02:15.355Z,99276.00
2018-12-16T13:04:48.225Z,99267.00
2018-12-16T13:07:20.073Z,99274.00
2018-12-16T13:09:52.528Z,99257.00
2018-12-16T13:12:22.922Z,99268.00
2018-12-16T13:14:53.203Z,99267.00
2018-12-16T13:17:26.311Z,99277.00
2018-12-16T13:20:02.366Z,99276.00
2018-12-16T13:22:34.723Z,99269.00
2018-12-16T13:25:21.023Z,99280.00
2018-12-16T13:27:50.423Z,99281.00
2018-12-16T13:30:19.797Z,99273.00
2018-12-16T13:32:49.164Z,99266.00
2018-12-16T13:35:20.785Z,99268.00
2018-12-16T13:37:59.187Z,99268.00
2018-12-16T13:40:29.659Z,99274.00
2018-12-16T13:42:59.060Z,99267.00
2018-12-16T13:45:28.756Z,99273.00
2018-12-16T13:47:59.130Z,99279.00
2018-12-16T13:50:32.982Z,99274.00
2018-12-16T13:53:07.254Z,99289.00
2018-12-16T13:55:40.881Z,99277.00
2018-12-16T13:58:08.306Z,99273.00
2018-12-16T14:00:38.587Z,99275.00
2018-12-16T14:03:07.945Z,99279.00
2018-12-16T14:05:46.456Z,99283.00
2018-12-16T14:08:14.035Z,99284.00
2018-12-16T14:10:43.461Z,99289.00
2018-12-16T14:13:14.993Z,99285.00
2018-12-16T14:15:52.297Z,99278.00
2018-12-16T14:18:20.982Z,99274.00
2018-12-16T14:23:32.606Z,99265.00
2018-12-16T14:26:02.139Z,99271.00
2018-12-16T14:28:31.514Z,99275.00
2018-12-16T14:31:00.929Z,99265.00
2018-12-16T14:33:30.380Z,99263.00
2018-12-16T14:35:59.829Z,99265.00
2018-12-16T14:38:31.038Z,99262.00
2018-12-16T14:41:00.990Z,99258.00
2018-12-16T14:43:30.500Z,99264.00
2018-12-16T14:46:01.597Z,99267.00
2018-12-16T14:48:33.778Z,99276.00
2018-12-16T14:51:03.220Z,99277.00
2018-12-16T14:53:34.154Z,99245.00
2018-12-16T14:56:05.476Z,99273.00
2018-12-16T14:58:38.547Z,99275.00
2018-12-16T15:01:08.232Z,99281.00
2018-12-16T15:03:38.414Z,99289.00
2018-12-16T15:06:10.636Z,99286.00
2018-12-16T15:08:42.512Z,99280.00
2018-12-16T15:11:11.884Z,99283.00
2018-12-16T15:13:41.265Z,99281.00
2018-12-16T15:16:12.377Z,99290.00
2018-12-16T15:18:41.995Z,99283.00
2018-12-16T15:21:11.469Z,99284.00
2018-12-16T15:23:46.925Z,99283.00
2018-12-16T15:26:17.178Z,99284.00
2018-12-16T15:28:47.010Z,99289.00
2018-12-16T15:31:16.758Z,99298.00
2018-12-16T15:33:48.017Z,99286.00
2018-12-16T15:36:18.037Z,99285.00
2018-12-16T15:38:47.450Z,99279.00
2018-12-16T15:41:16.890Z,99278.00
2018-12-16T15:43:47.125Z,99284.00
2018-12-16T15:46:18.928Z,99288.00
2018-12-16T15:48:48.462Z,99283.00
2018-12-16T15:51:19.040Z,99277.00
2018-12-16T15:53:48.973Z,99287.00
2018-12-16T15:56:21.646Z,99286.00
2018-12-16T15:58:52.384Z,99289.00
2018-12-16T16:01:22.864Z,99286.00
2018-12-16T16:03:52.323Z,99286.00
2018-12-16T16:06:22.011Z,99289.00
2018-12-16T16:08:52.370Z,99294.00
2018-12-16T16:11:22.730Z,99298.00
2018-12-16T16:13:53.264Z,99292.00
2018-12-16T16:16:23.511Z,99300.00
2018-12-16T16:18:53.276Z,99297.00
2018-12-16T16:21:23.652Z,99299.00
2018-12-16T16:23:58.229Z,99294.00
2018-12-16T16:26:27.750Z,99295.00
2018-12-16T16:28:57.862Z,99296.00
2018-12-16T16:31:28.121Z,99304.00
2018-12-16T16:33:57.738Z,99306.00
2018-12-16T16:36:30.240Z,99318.00
2018-12-16T16:39:00.926Z,99310.00
2018-12-16T16:41:31.924Z,99323.00
2018-12-16T16:44:06.494Z,99325.00
2018-12-16T16:46:37.911Z,99327.00
2018-12-16T16:49:07.388Z,99326.00
2018-12-16T16:51:37.001Z,99324.00
2018-12-16T16:54:07.157Z,99317.00
2018-12-16T16:56:36.874Z,99325.00
2018-12-16T16:59:07.866Z,99309.00
2018-12-16T17:01:37.372Z,99326.00
2018-12-16T17:04:07.769Z,99325.00
2018-12-16T17:06:38.616Z,99331.00
2018-12-16T17:09:09.741Z,99342.00
2018-12-16T17:11:42.988Z,99338.00
2018-12-16T17:14:14.858Z,99347.00
2018-12-16T17:16:45.458Z,99348.00
2018-12-16T17:19:16.632Z,99356.00
2018-12-16T17:21:47.650Z,99354.00
2018-12-16T17:24:18.283Z,99353.00
2018-12-16T17:26:49.766Z,99341.00
2018-12-16T17:29:20.879Z,99337.00
2018-12-16T17:31:50.451Z,99337.00
2018-12-16T17:34:19.929Z,99332.00
2018-12-16T17:36:53.928Z,99338.00
2018-12-16T17:39:24.624Z,99343.00
2018-12-16T17:41:55.810Z,99341.00
2018-12-16T17:44:25.410Z,99333.00
2018-12-16T17:47:08.200Z,99309.00
2018-12-16T17:50:04.879Z,99344.00
2018-12-16T17:52:35.467Z,99341.00
2018-12-16T17:55:06.889Z,99348.00
2018-12-16T17:57:37.748Z,99350.00
2018-12-16T18:00:11.485Z,99368.00
2018-12-16T18:09:33.533Z,99369.00
2018-12-16T18:12:03.972Z,99364.00
2018-12-16T18:14:34.698Z,99369.00
2018-12-16T18:17:08.597Z,99368.00
2018-12-16T18:19:39.158Z,99370.00
2018-12-16T18:22:14.181Z,99381.00
2018-12-16T18:24:44.345Z,99379.00
2018-12-16T18:27:13.957Z,99381.00
2018-12-16T18:29:44.501Z,99379.00
2018-12-16T18:32:14.545Z,99379.00
2018-12-16T18:34:45.132Z,99380.00
2018-12-16T18:37:14.770Z,99372.00
2018-12-16T18:39:44.459Z,99371.00
2018-12-16T18:42:14.363Z,99374.00
2018-12-16T18:44:44.334Z,99360.00
2018-12-16T18:47:14.704Z,99376.00
2018-12-16T18:49:44.250Z,99378.00
2018-12-16T18:52:14.632Z,99379.00
2018-12-16T18:54:46.934Z,99376.00
2018-12-16T18:57:19.885Z,99376.00
2018-12-16T18:59:52.265Z,99378.00
2018-12-16T19:02:23.972Z,99373.00
2018-12-16T19:04:56.226Z,99372.00
2018-12-16T19:07:27.635Z,99374.00
2018-12-16T19:09:59.095Z,99378.00
2018-12-16T19:12:31.771Z,99369.00
2018-12-16T19:15:02.345Z,99362.00
2018-12-16T19:17:33.075Z,99374.00
2018-12-16T19:20:04.788Z,99366.00
2018-12-16T19:22:35.728Z,99371.00
2018-12-16T19:25:08.755Z,99374.00
2018-12-16T19:27:38.736Z,99365.00
2018-12-16T19:30:12.442Z,99374.00
2018-12-16T19:32:43.149Z,99365.00
2018-12-16T19:35:13.567Z,99364.00
2018-12-16T19:37:45.016Z,99368.00
2018-12-16T19:40:15.090Z,99373.00
2018-12-16T19:42:46.808Z,99363.00
2018-12-16T19:45:17.408Z,99373.00
2018-12-16T19:47:49.672Z,99371.00
2018-12-16T19:50:18.563Z,99384.00
2018-12-16T19:52:48.989Z,99387.00
2018-12-16T19:55:21.645Z,99390.00
2018-12-16T19:57:52.898Z,99381.00
2018-12-16T20:00:23.990Z,99383.00
2018-12-16T20:02:53.796Z,99387.00
2018-12-16T20:05:23.781Z,99382.00
2018-12-16T20:07:54.290Z,99381.00
2018-12-16T20:10:24.374Z,99388.00
2018-12-16T20:12:53.852Z,99386.00
2018-12-16T20:15:24.200Z,99378.00
2018-12-16T20:20:31.918Z,99388.00
2018-12-16T20:23:02.935Z,99401.00
2018-12-16T20:25:34.026Z,99400.00
2018-12-16T20:30:40.022Z,99397.00
2018-12-16T20:33:15.087Z,99408.00
2018-12-16T20:35:48.959Z,99410.00
2018-12-16T20:38:19.487Z,99413.00
2018-12-16T20:40:49.234Z,99422.00
2018-12-16T20:43:18.921Z,99413.00
2018-12-16T20:45:49.930Z,99420.00
2018-12-16T20:48:21.438Z,99413.00
2018-12-16T20:50:53.122Z,99418.00
2018-12-16T20:53:22.555Z,99411.00
2018-12-16T20:55:53.674Z,99415.00
2018-12-16T20:58:24.779Z,99416.00
2018-12-16T21:00:55.408Z,99419.00
2018-12-16T21:03:25.086Z,99422.00
2018-12-16T21:05:56.281Z,99423.00
2018-12-16T21:08:27.104Z,99415.00
2018-12-16T21:13:50.157Z,99418.00
2018-12-16T21:16:28.179Z,99412.00
2018-12-16T21:19:01.587Z,99421.00
2018-12-16T21:21:34.013Z,99430.00
2018-12-16T21:24:03.785Z,99415.00
2018-12-16T21:26:34.191Z,99427.00
2018-12-16T21:29:03.630Z,99428.00
2018-12-16T21:31:35.305Z,99434.00
2018-12-16T21:34:06.137Z,99435.00
2018-12-16T21:36:35.790Z,99435.00
2018-12-16T21:39:07.891Z,99426.00
2018-12-16T21:41:37.292Z,99425.00
2018-12-16T21:44:08.284Z,99430.00
2018-12-16T21:46:39.393Z,99438.00
2018-12-16T21:49:12.916Z,99434.00
2018-12-16T21:51:43.363Z,99440.00
2018-12-16T21:54:13.379Z,99441.00
2018-12-16T21:56:44.942Z,99451.00
2018-12-16T21:59:15.225Z,99447.00
2018-12-16T22:01:44.592Z,99452.00
2018-12-16T22:04:13.977Z,99455.00
2018-12-16T22:06:43.439Z,99453.00
2018-12-16T22:09:13.147Z,99454.00
2018-12-16T22:11:42.738Z,99446.00
2018-12-16T22:14:12.219Z,99450.00
2018-12-16T22:16:42.338Z,99454.00
2018-12-16T22:19:12.943Z,99439.00
2018-12-16T22:21:43.177Z,99449.00
2018-12-16T22:24:12.689Z,99441.00
2018-12-16T22:26:42.688Z,99443.00
2018-12-16T22:29:13.071Z,99448.00
2018-12-16T22:31:42.619Z,99440.00
2018-12-16T22:34:12.138Z,99440.00
2018-12-16T22:36:47.363Z,99440.00
2018-12-16T22:39:16.901Z,99453.00
2018-12-16T22:41:51.733Z,99451.00
2018-12-16T22:44:21.932Z,99446.00
2018-12-16T22:46:55.152Z,99444.00
2018-12-16T22:49:24.632Z,99444.00
2018-12-16T22:51:56.240Z,99440.00
2018-12-16T22:54:25.670Z,99434.00
2018-12-16T22:56:55.122Z,99439.00
2018-12-16T22:59:25.867Z,99435.00
2018-12-16T23:01:59.373Z,99433.00
2018-12-16T23:04:28.832Z,99435.00
2018-12-16T23:07:02.669Z,99434.00
2018-12-16T23:09:32.993Z,99432.00
2018-12-16T23:12:03.959Z,99441.00
2018-12-16T23:14:33.335Z,99449.00
2018-12-16T23:17:04.139Z,99454.00
2018-12-16T23:19:34.367Z,99450.00
2018-12-16T23:22:07.392Z,99457.00
2018-12-16T23:24:40.967Z,99464.00
2018-12-16T23:27:13.780Z,99453.00
2018-12-16T23:29:43.892Z,99461.00
2018-12-16T23:32:14.627Z,99463.00
2018-12-16T23:34:45.675Z,99462.00
2018-12-16T23:37:15.102Z,99461.00
2018-12-16T23:39:44.673Z,99452.00
2018-12-16T23:42:14.079Z,99472.00
2018-12-16T23:44:43.459Z,99477.00
2018-12-16T23:47:14.581Z,99477.00
2018-12-16T23:49:43.930Z,99480.00
2018-12-16T23:52:13.797Z,99485.00
2018-12-16T23:54:44.525Z,99484.00
2018-12-16T23:57:14.671Z,99478.00
2018-12-16T23:59:44.619Z,99483.00
